Time;durP1;ratioP1;P1;durP2;ratioP2;P2;SDS_P1;SDS_P2;PMS_P1;PMS_P2;Temp;Humidity;BMP_temperature;BMP_pressure;BME280_temperature;BME280_humidity;BME280_pressure;Samples;Min_cycle;Max_cycle;Signal;HPM_P1;HPM_P2
2022/02/16 00:07:56;;;;;;;4.55;1.70;;;18.80;55.20;;;;;;20655677;28;20120;-66
2022/02/16 00:17:58;;;;;;;5.60;2.03;;;18.80;55.50;;;;;;20647714;28;20089;-66
2022/02/16 00:28:00;;;;;;;6.07;1.33;;;18.70;55.80;;;;;;20655232;28;20057;-63
2022/02/16 00:38:02;;;;;;;6.38;2.00;;;18.70;56.00;;;;;;20650337;28;20057;-65
2022/02/16 00:48:04;;;;;;;5.40;1.50;;;18.70;56.30;;;;;;20654309;28;20190;-66
2022/02/16 00:58:06;;;;;;;2.22;1.10;;;18.60;56.50;;;;;;20654900;28;20066;-65
2022/02/16 01:08:09;;;;;;;3.83;1.30;;;18.60;56.90;;;;;;20651946;28;20479;-66
2022/02/16 01:18:11;;;;;;;4.20;1.27;;;18.60;57.10;;;;;;20646925;28;20058;-66
2022/02/16 01:28:12;;;;;;;2.42;1.30;;;18.60;57.30;;;;;;20660734;28;20379;-65
2022/02/16 01:38:14;;;;;;;3.45;1.20;;;18.60;57.30;;;;;;20659378;28;20057;-65
2022/02/16 01:48:16;;;;;;;3.08;0.93;;;18.60;57.40;;;;;;20667097;28;20074;-64
2022/02/16 01:58:17;;;;;;;2.55;1.02;;;18.60;57.40;;;;;;20667333;28;20050;-64
2022/02/16 02:08:21;;;;;;;2.08;0.90;;;18.60;57.60;;;;;;20665476;28;20050;-66
2022/02/16 02:18:23;;;;;;;2.55;1.00;;;18.60;57.40;;;;;;20666552;28;20054;-64
2022/02/16 02:28:27;;;;;;;2.25;1.00;;;18.50;57.60;;;;;;20647976;28;20038;-64
2022/02/16 02:38:29;;;;;;;1.50;0.90;;;18.50;57.70;;;;;;20656405;28;20042;-63
2022/02/16 02:48:38;;;;;;;2.40;1.08;;;18.40;57.80;;;;;;20662463;28;20054;-62
2022/02/16 02:58:57;;;;;;;4.05;1.25;;;18.40;57.90;;;;;;20659068;28;20061;-63
2022/02/16 03:09:03;;;;;;;2.05;0.85;;;18.40;58.00;;;;;;20660342;28;20449;-65
2022/02/16 03:19:09;;;;;;;3.40;1.10;;;18.40;58.20;;;;;;20659915;28;20046;-62
2022/02/16 03:29:13;;;;;;;2.10;0.80;;;18.30;58.20;;;;;;20659704;28;20734;-62
2022/02/16 03:39:18;;;;;;;2.47;1.00;;;18.30;58.20;;;;;;20658219;28;20563;-62
2022/02/16 03:49:24;;;;;;;1.70;0.95;;;18.30;58.20;;;;;;20656590;28;20049;-62
2022/02/16 03:59:27;;;;;;;2.45;1.00;;;18.30;58.30;;;;;;20650495;28;20061;-62
2022/02/16 04:09:30;;;;;;;2.15;0.73;;;18.30;58.30;;;;;;20651408;28;20558;-61
2022/02/16 04:19:34;;;;;;;2.00;0.65;;;18.20;58.40;;;;;;20649694;28;20050;-62
2022/02/16 04:29:37;;;;;;;3.58;0.70;;;18.20;58.60;;;;;;20648661;28;20050;-61
2022/02/16 04:39:43;;;;;;;1.42;0.85;;;18.20;58.60;;;;;;20653532;28;20192;-61
2022/02/16 04:49:51;;;;;;;2.10;0.83;;;18.20;58.70;;;;;;20655757;28;20604;-63
2022/02/16 04:59:58;;;;;;;2.63;0.70;;;18.20;58.70;;;;;;20655650;28;20054;-64
2022/02/16 05:10:00;;;;;;;3.38;0.80;;;18.20;58.70;;;;;;20669089;28;20050;-65
2022/02/16 05:20:04;;;;;;;1.95;0.80;;;18.20;58.80;;;;;;20664537;28;20198;-64
2022/02/16 05:30:07;;;;;;;2.28;0.80;;;18.10;59.00;;;;;;20667997;28;20050;-64
2022/02/16 05:40:10;;;;;;;1.73;0.90;;;18.00;59.10;;;;;;20661064;28;20054;-63
2022/02/16 05:50:13;;;;;;;1.88;0.77;;;18.10;59.10;;;;;;20654754;28;20449;-65
2022/02/16 06:00:15;;;;;;;2.00;0.70;;;18.00;59.10;;;;;;20664560;28;20046;-65
2022/02/16 06:10:23;;;;;;;1.50;0.60;;;18.10;58.90;;;;;;20660927;28;20050;-64
2022/02/16 06:20:30;;;;;;;6.35;1.20;;;18.40;59.00;;;;;;20665287;28;20217;-65
2022/02/16 06:30:51;;;;;;;8.75;2.13;;;18.90;58.90;;;;;;20660501;28;20046;-64
2022/02/16 06:40:57;;;;;;;6.97;2.17;;;20.10;58.30;;;;;;20662442;28;20050;-65
2022/02/16 06:51:01;;;;;;;7.63;2.55;;;21.70;56.50;;;;;;20664141;28;20482;-64
2022/02/16 07:01:05;;;;;;;6.75;2.58;;;22.60;54.90;;;;;;20663542;28;20057;-65
2022/02/16 07:11:07;;;;;;;7.20;2.03;;;22.50;54.80;;;;;;20662463;28;20054;-64
2022/02/16 07:21:10;;;;;;;7.30;2.00;;;22.00;54.80;;;;;;20660684;28;20085;-64
2022/02/16 07:31:13;;;;;;;7.15;1.73;;;21.40;54.60;;;;;;20653670;28;20639;-63
2022/02/16 07:41:16;;;;;;;5.72;2.03;;;20.90;54.60;;;;;;20658084;28;20050;-64
2022/02/16 07:51:18;;;;;;;8.23;3.13;;;20.30;55.20;;;;;;20657860;28;20178;-64
2022/02/16 08:01:21;;;;;;;12.95;3.05;;;20.00;56.00;;;;;;20657808;28;20057;-65
2022/02/16 08:11:23;;;;;;;13.38;3.13;;;19.70;56.70;;;;;;20655098;28;20050;-63
2022/02/16 08:21:25;;;;;;;11.15;2.95;;;19.50;57.30;;;;;;20654698;28;20085;-59
2022/02/16 08:31:30;;;;;;;8.32;2.65;;;19.30;57.60;;;;;;20651454;28;20074;-60
2022/02/16 08:41:32;;;;;;;9.13;2.92;;;19.20;58.00;;;;;;20648648;28;20137;-60
2022/02/16 08:51:34;;;;;;;7.32;2.10;;;19.00;58.20;;;;;;20655335;28;20049;-60
2022/02/16 09:01:37;;;;;;;8.50;2.33;;;18.90;58.40;;;;;;20644961;28;20054;-60
2022/02/16 09:11:38;;;;;;;7.78;2.50;;;18.90;58.40;;;;;;20650031;28;20108;-59
2022/02/16 09:21:41;;;;;;;8.95;2.78;;;18.90;58.50;;;;;;20653070;28;20561;-61
2022/02/16 09:31:43;;;;;;;8.02;3.05;;;18.90;58.80;;;;;;20654541;28;20453;-62
2022/02/16 09:41:47;;;;;;;5.65;2.50;;;18.80;59.10;;;;;;20665205;28;20212;-60
2022/02/16 09:55:03;;;;;;;5.95;1.90;;;18.80;59.20;;;;;;21032011;27;20403;-56
2022/02/16 10:05:07;;;;;;;6.18;2.00;;;18.80;59.20;;;;;;20979388;28;20048;-56
2022/02/16 10:15:09;;;;;;;9.70;2.30;;;18.90;59.20;;;;;;20993928;28;20596;-56
2022/02/16 10:25:28;;;;;;;7.40;1.80;;;19.00;58.90;;;;;;20985605;28;20442;-56
2022/02/16 10:35:33;;;;;;;4.72;2.20;;;19.00;58.90;;;;;;20986233;28;20481;-55
2022/02/16 10:45:49;;;;;;;4.35;1.70;;;19.10;58.70;;;;;;20996010;28;20051;-56
2022/02/16 10:55:51;;;;;;;4.25;1.50;;;19.20;58.70;;;;;;20994522;28;20612;-56
2022/02/16 11:05:55;;;;;;;7.28;1.88;;;19.30;58.60;;;;;;20938972;28;20048;-56
2022/02/16 11:15:59;;;;;;;4.25;1.48;;;19.30;58.40;;;;;;20931630;28;20406;-52
2022/02/16 11:26:41;;;;;;;4.03;1.63;;;19.30;58.60;;;;;;20915488;28;20424;-52
2022/02/16 11:36:48;;;;;;;6.35;1.63;;;19.30;58.80;;;;;;20936554;28;20129;-52
2022/02/16 11:46:54;;;;;;;3.90;1.60;;;19.30;58.90;;;;;;20932812;28;20548;-52
2022/02/16 11:56:55;;;;;;;4.22;1.45;;;19.40;58.50;;;;;;20925342;28;20450;-51
2022/02/16 12:07:24;;;;;;;2.85;1.30;;;19.50;58.50;;;;;;20936927;28;20142;-54
2022/02/16 12:17:26;;;;;;;2.97;1.40;;;19.70;58.30;;;;;;20937137;28;20057;-52
2022/02/16 12:27:28;;;;;;;4.03;1.27;;;19.70;57.90;;;;;;20917673;28;20052;-52
2022/02/16 12:37:30;;;;;;;2.72;1.27;;;19.80;57.60;;;;;;20934759;28;20110;-52
2022/02/16 12:47:32;;;;;;;5.25;1.48;;;19.90;57.60;;;;;;20928366;28;20404;-52
2022/02/16 12:57:33;;;;;;;4.05;1.33;;;20.00;57.40;;;;;;20928232;28;20044;-52
2022/02/16 13:10:49;;;;;;;2.30;1.10;;;20.10;57.00;;;;;;20980044;27;20392;-52
2022/02/16 13:21:06;;;;;;;4.97;1.35;;;20.20;56.90;;;;;;20923828;28;20114;-51
2022/02/16 13:31:17;;;;;;;2.10;1.15;;;20.20;57.00;;;;;;20883512;28;20061;-52
2022/02/16 13:41:21;;;;;;;2.70;1.13;;;20.20;56.80;;;;;;20905340;28;20048;-53
2022/02/16 13:51:23;;;;;;;3.67;1.35;;;20.20;56.60;;;;;;20896665;28;20510;-54
2022/02/16 14:01:24;;;;;;;3.65;1.52;;;20.20;56.70;;;;;;20903662;28;20053;-57
2022/02/16 14:11:26;;;;;;;2.25;1.30;;;20.20;56.90;;;;;;20886300;28;20045;-57
2022/02/16 14:21:28;;;;;;;3.25;1.30;;;20.20;56.80;;;;;;20851416;28;20586;-57
2022/02/16 14:31:30;;;;;;;4.80;2.00;;;20.20;56.70;;;;;;20821224;28;20061;-57
2022/02/16 14:41:34;;;;;;;8.50;1.60;;;20.10;56.80;;;;;;20849395;28;20045;-56
2022/02/16 14:51:36;;;;;;;13.57;1.77;;;20.10;56.90;;;;;;20856626;28;20140;-54
2022/02/16 15:07:55;;;;;;;4.70;1.33;;;20.10;57.20;;;;;;21026573;27;20387;-54
2022/02/16 15:17:57;;;;;;;3.78;1.13;;;20.20;56.90;;;;;;20976156;28;20411;-52
2022/02/16 15:28:00;;;;;;;4.13;1.50;;;20.20;56.80;;;;;;20939703;28;20071;-51
2022/02/16 15:38:02;;;;;;;9.88;1.73;;;20.20;57.00;;;;;;20929997;28;20048;-50
2022/02/16 15:48:04;;;;;;;4.20;1.30;;;20.20;56.90;;;;;;20940823;28;20136;-54
2022/02/16 15:58:06;;;;;;;5.65;1.23;;;20.20;56.80;;;;;;20922320;28;20056;-54
2022/02/16 16:08:09;;;;;;;5.93;1.13;;;20.20;56.80;;;;;;20950459;28;20057;-56
2022/02/16 16:18:10;;;;;;;4.35;1.48;;;20.20;57.00;;;;;;20881516;28;20056;-56
2022/02/16 16:28:15;;;;;;;3.95;1.50;;;20.20;57.10;;;;;;20907801;28;20135;-56
2022/02/16 16:38:17;;;;;;;8.90;1.02;;;20.20;57.10;;;;;;20885802;28;20056;-51
2022/02/16 16:48:19;;;;;;;3.55;1.40;;;20.10;57.10;;;;;;20853529;28;20467;-50
2022/02/16 16:58:20;;;;;;;3.63;1.45;;;20.00;57.50;;;;;;20859606;28;20119;-51
2022/02/16 17:08:23;;;;;;;3.35;1.15;;;19.90;57.80;;;;;;20859107;28;20361;-49
2022/02/16 17:18:25;;;;;;;8.23;1.48;;;19.90;58.20;;;;;;20850267;28;20045;-41
2022/02/16 17:28:27;;;;;;;2.45;0.82;;;19.80;58.50;;;;;;20875523;28;20053;-41
2022/02/16 17:38:28;;;;;;;3.03;1.05;;;19.90;58.50;;;;;;20872563;28;20054;-40
2022/02/16 17:48:30;;;;;;;3.80;0.95;;;19.90;58.50;;;;;;20897373;28;20467;-43
2022/02/16 17:58:31;;;;;;;2.70;1.17;;;19.90;58.40;;;;;;20864433;28;20046;-38
2022/02/16 18:08:33;;;;;;;2.45;0.90;;;19.80;58.30;;;;;;20896193;28;20128;-44
2022/02/16 18:18:36;;;;;;;2.83;1.00;;;19.80;58.40;;;;;;20874671;28;20045;-43
2022/02/16 18:35:25;;;;;;;1.95;0.70;;;19.70;58.40;;;;;;20877267;28;20368;-41
2022/02/16 18:45:27;;;;;;;1.20;1.00;;;19.70;58.40;;;;;;20865743;28;20100;-41
2022/02/16 18:55:29;;;;;;;4.55;0.93;;;19.70;58.40;;;;;;20880891;28;20484;-42
2022/02/16 19:14:29;;;;;;;3.15;0.75;;;19.70;58.50;;;;;;21049570;27;20712;-40
2022/02/16 19:24:32;;;;;;;1.52;0.68;;;19.70;58.80;;;;;;20920077;28;20550;-42
2022/02/16 19:34:33;;;;;;;4.53;1.30;;;19.60;59.00;;;;;;20936465;28;20053;-42
2022/02/16 19:44:37;;;;;;;2.08;1.10;;;20.90;57.60;;;;;;20911566;28;20048;-42
2022/02/16 19:54:38;;;;;;;4.30;1.30;;;22.30;55.50;;;;;;20915463;28;20055;-42
2022/02/16 20:04:40;;;;;;;6.57;1.58;;;23.50;53.90;;;;;;20943312;28;20063;-42
2022/02/16 20:14:42;;;;;;;4.70;0.90;;;24.30;52.40;;;;;;20900719;28;20052;-42
2022/02/16 20:24:44;;;;;;;6.22;1.10;;;24.80;50.60;;;;;;20852509;28;20487;-40
2022/02/16 20:34:46;;;;;;;2.78;1.10;;;25.20;49.20;;;;;;20862011;28;20045;-36
2022/02/16 20:44:48;;;;;;;4.75;1.08;;;25.40;48.40;;;;;;20872129;28;20054;-37
2022/02/16 20:54:52;;;;;;;9.27;1.38;;;25.70;47.80;;;;;;20873148;28;20076;-37
2022/02/16 21:04:54;;;;;;;17.73;2.08;;;26.00;47.10;;;;;;20880741;28;20195;-37
2022/02/16 21:14:56;;;;;;;32.83;10.60;;;26.10;46.90;;;;;;20834801;28;20057;-37
2022/02/16 21:24:57;;;;;;;33.13;11.73;;;26.20;46.90;;;;;;20836425;28;20072;-55
2022/02/16 21:34:58;;;;;;;30.27;10.32;;;26.10;47.00;;;;;;20850646;28;20095;-53
2022/02/16 21:45:02;;;;;;;21.40;8.80;;;25.70;47.40;;;;;;20835276;28;20122;-55
2022/02/16 21:55:06;;;;;;;24.83;8.25;;;25.10;47.90;;;;;;20830514;28;20065;-51
2022/02/16 22:05:08;;;;;;;16.52;7.38;;;24.50;48.60;;;;;;20845882;28;20385;-54
2022/02/16 22:21:58;;;;;;;16.80;6.55;;;23.90;49.30;;;;;;21072785;27;20393;-54
2022/02/16 22:31:59;;;;;;;14.00;5.45;;;22.80;50.90;;;;;;21017925;28;20044;-54
2022/02/16 22:42:03;;;;;;;12.45;4.82;;;22.20;51.80;;;;;;21014857;28;20135;-53
2022/02/16 22:52:05;;;;;;;13.50;5.47;;;21.70;52.60;;;;;;21017500;28;21446;-52
2022/02/16 23:22:49;;;;;;;11.73;4.43;;;20.50;55.40;;;;;;21025682;28;20048;-54
2022/02/16 23:32:51;;;;;;;11.02;4.88;;;20.20;56.10;;;;;;20930445;28;20095;-52
2022/02/16 23:42:53;;;;;;;9.18;3.72;;;20.00;56.90;;;;;;20953746;28;20143;-54
2022/02/16 23:53:01;;;;;;;10.30;4.28;;;19.80;57.50;;;;;;20965873;28;20564;-53
